sensor_id;sensor_type;location;lat;lon;timestamp;P1;durP1;ratioP1;P2;durP2;ratioP2
51122;SDS011;37162;41.724;13.346;2023-03-01T00:00:39;4.35;;;2.20;;
51122;SDS011;37162;41.724;13.346;2023-03-01T00:03:05;3.55;;;2.10;;
51122;SDS011;37162;41.724;13.346;2023-03-01T00:05:31;3.08;;;2.45;;
51122;SDS011;37162;41.724;13.346;2023-03-01T00:07:57;3.08;;;1.75;;
51122;SDS011;37162;41.724;13.346;2023-03-01T00:10:23;3.83;;;2.47;;
51122;SDS011;37162;41.724;13.346;2023-03-01T00:12:48;4.65;;;2.50;;
51122;SDS011;37162;41.724;13.346;2023-03-01T00:15:13;3.17;;;2.42;;
51122;SDS011;37162;41.724;13.346;2023-03-01T00:17:39;3.08;;;2.55;;
51122;SDS011;37162;41.724;13.346;2023-03-01T00:20:04;4.03;;;2.58;;
51122;SDS011;37162;41.724;13.346;2023-03-01T00:22:35;3.65;;;2.20;;
51122;SDS011;37162;41.724;13.346;2023-03-01T00:25:01;2.70;;;2.05;;
51122;SDS011;37162;41.724;13.346;2023-03-01T00:27:26;3.50;;;2.90;;
51122;SDS011;37162;41.724;13.346;2023-03-01T00:29:52;3.95;;;2.20;;
51122;SDS011;37162;41.724;13.346;2023-03-01T00:32:17;2.75;;;2.22;;
51122;SDS011;37162;41.724;13.346;2023-03-01T00:34:42;2.67;;;2.35;;
51122;SDS011;37162;41.724;13.346;2023-03-01T00:37:18;3.05;;;1.95;;
51122;SDS011;37162;41.724;13.346;2023-03-01T00:39:45;1.98;;;1.77;;
51122;SDS011;37162;41.724;13.346;2023-03-01T00:42:11;2.85;;;1.88;;
51122;SDS011;37162;41.724;13.346;2023-03-01T00:44:37;2.60;;;2.17;;
51122;SDS011;37162;41.724;13.346;2023-03-01T00:47:02;3.88;;;2.03;;
51122;SDS011;37162;41.724;13.346;2023-03-01T00:49:28;3.35;;;2.20;;
51122;SDS011;37162;41.724;13.346;2023-03-01T00:51:53;2.83;;;2.30;;
51122;SDS011;37162;41.724;13.346;2023-03-01T00:54:19;2.50;;;2.30;;
51122;SDS011;37162;41.724;13.346;2023-03-01T00:56:44;2.47;;;1.58;;
51122;SDS011;37162;41.724;13.346;2023-03-01T00:59:09;3.33;;;1.90;;
51122;SDS011;37162;41.724;13.346;2023-03-01T01:01:35;2.90;;;1.92;;
51122;SDS011;37162;41.724;13.346;2023-03-01T01:04:04;3.05;;;1.70;;
51122;SDS011;37162;41.724;13.346;2023-03-01T01:06:32;2.50;;;1.73;;
51122;SDS011;37162;41.724;13.346;2023-03-01T01:09:00;2.40;;;1.45;;
51122;SDS011;37162;41.724;13.346;2023-03-01T01:11:27;2.13;;;1.75;;
51122;SDS011;37162;41.724;13.346;2023-03-01T01:13:53;3.20;;;2.05;;
51122;SDS011;37162;41.724;13.346;2023-03-01T01:16:20;2.50;;;1.58;;
51122;SDS011;37162;41.724;13.346;2023-03-01T01:18:47;3.90;;;1.65;;
51122;SDS011;37162;41.724;13.346;2023-03-01T01:21:14;3.10;;;1.67;;
51122;SDS011;37162;41.724;13.346;2023-03-01T01:23:42;1.50;;;1.38;;
51122;SDS011;37162;41.724;13.346;2023-03-01T01:26:20;1.40;;;1.30;;
51122;SDS011;37162;41.724;13.346;2023-03-01T01:28:47;1.40;;;1.30;;
51122;SDS011;37162;41.724;13.346;2023-03-01T01:31:13;3.60;;;1.85;;
51122;SDS011;37162;41.724;13.346;2023-03-01T01:33:38;1.60;;;1.27;;
51122;SDS011;37162;41.724;13.346;2023-03-01T01:36:05;1.30;;;1.20;;
51122;SDS011;37162;41.724;13.346;2023-03-01T01:38:31;1.92;;;1.45;;
51122;SDS011;37162;41.724;13.346;2023-03-01T01:40:57;2.00;;;1.35;;
51122;SDS011;37162;41.724;13.346;2023-03-01T01:43:24;4.95;;;1.52;;
51122;SDS011;37162;41.724;13.346;2023-03-01T01:45:50;1.38;;;1.20;;
51122;SDS011;37162;41.724;13.346;2023-03-01T01:48:21;1.67;;;1.20;;
51122;SDS011;37162;41.724;13.346;2023-03-01T01:50:59;1.27;;;1.17;;
51122;SDS011;37162;41.724;13.346;2023-03-01T01:53:26;1.40;;;1.30;;
51122;SDS011;37162;41.724;13.346;2023-03-01T01:55:53;1.85;;;1.35;;
51122;SDS011;37162;41.724;13.346;2023-03-01T01:58:24;2.08;;;1.70;;
51122;SDS011;37162;41.724;13.346;2023-03-01T02:00:52;3.22;;;1.50;;
51122;SDS011;37162;41.724;13.346;2023-03-01T02:03:20;1.25;;;1.15;;
51122;SDS011;37162;41.724;13.346;2023-03-01T02:08:27;1.10;;;0.90;;
51122;SDS011;37162;41.724;13.346;2023-03-01T02:10:55;1.05;;;0.95;;
51122;SDS011;37162;41.724;13.346;2023-03-01T02:13:22;1.58;;;1.10;;
51122;SDS011;37162;41.724;13.346;2023-03-01T02:15:48;1.38;;;1.20;;
51122;SDS011;37162;41.724;13.346;2023-03-01T02:18:14;1.83;;;1.10;;
51122;SDS011;37162;41.724;13.346;2023-03-01T02:21:07;1.65;;;1.13;;
51122;SDS011;37162;41.724;13.346;2023-03-01T02:23:42;1.10;;;1.00;;
51122;SDS011;37162;41.724;13.346;2023-03-01T02:26:15;3.53;;;1.02;;
51122;SDS011;37162;41.724;13.346;2023-03-01T02:28:44;1.17;;;0.98;;
51122;SDS011;37162;41.724;13.346;2023-03-01T02:31:11;1.20;;;0.90;;
51122;SDS011;37162;41.724;13.346;2023-03-01T02:33:59;1.23;;;0.88;;
51122;SDS011;37162;41.724;13.346;2023-03-01T02:36:30;1.92;;;1.05;;
51122;SDS011;37162;41.724;13.346;2023-03-01T02:38:59;1.35;;;1.05;;
51122;SDS011;37162;41.724;13.346;2023-03-01T02:41:28;1.35;;;1.02;;
51122;SDS011;37162;41.724;13.346;2023-03-01T02:43:56;2.53;;;1.00;;
51122;SDS011;37162;41.724;13.346;2023-03-01T02:46:24;0.90;;;0.82;;
51122;SDS011;37162;41.724;13.346;2023-03-01T02:48:51;1.00;;;0.90;;
51122;SDS011;37162;41.724;13.346;2023-03-01T02:51:24;1.23;;;0.73;;
51122;SDS011;37162;41.724;13.346;2023-03-01T02:53:59;1.20;;;0.77;;
51122;SDS011;37162;41.724;13.346;2023-03-01T02:56:48;1.40;;;0.95;;
51122;SDS011;37162;41.724;13.346;2023-03-01T02:59:16;0.88;;;0.70;;
51122;SDS011;37162;41.724;13.346;2023-03-01T03:01:43;1.83;;;0.95;;
51122;SDS011;37162;41.724;13.346;2023-03-01T03:04:13;1.10;;;1.00;;
51122;SDS011;37162;41.724;13.346;2023-03-01T03:06:44;0.85;;;0.82;;
51122;SDS011;37162;41.724;13.346;2023-03-01T03:09:10;0.85;;;0.80;;
51122;SDS011;37162;41.724;13.346;2023-03-01T03:11:37;0.80;;;0.80;;
51122;SDS011;37162;41.724;13.346;2023-03-01T03:14:04;0.77;;;0.73;;
51122;SDS011;37162;41.724;13.346;2023-03-01T03:16:30;1.35;;;0.75;;
51122;SDS011;37162;41.724;13.346;2023-03-01T03:18:56;0.88;;;0.77;;
51122;SDS011;37162;41.724;13.346;2023-03-01T03:21:30;0.80;;;0.77;;
51122;SDS011;37162;41.724;13.346;2023-03-01T03:23:56;0.63;;;0.63;;
51122;SDS011;37162;41.724;13.346;2023-03-01T03:26:22;1.30;;;0.77;;
51122;SDS011;37162;41.724;13.346;2023-03-01T03:28:48;0.60;;;0.60;;
51122;SDS011;37162;41.724;13.346;2023-03-01T03:31:13;2.70;;;0.93;;
51122;SDS011;37162;41.724;13.346;2023-03-01T03:33:39;0.68;;;0.68;;
51122;SDS011;37162;41.724;13.346;2023-03-01T03:36:04;0.80;;;0.55;;
51122;SDS011;37162;41.724;13.346;2023-03-01T03:38:30;0.85;;;0.57;;
51122;SDS011;37162;41.724;13.346;2023-03-01T03:40:59;1.00;;;0.88;;
51122;SDS011;37162;41.724;13.346;2023-03-01T03:43:27;0.77;;;0.68;;
51122;SDS011;37162;41.724;13.346;2023-03-01T03:45:54;0.80;;;0.80;;
51122;SDS011;37162;41.724;13.346;2023-03-01T03:48:22;0.65;;;0.50;;
51122;SDS011;37162;41.724;13.346;2023-03-01T03:50:49;0.93;;;0.60;;
51122;SDS011;37162;41.724;13.346;2023-03-01T03:53:16;1.02;;;0.68;;
51122;SDS011;37162;41.724;13.346;2023-03-01T03:55:42;0.73;;;0.60;;
51122;SDS011;37162;41.724;13.346;2023-03-01T03:58:09;0.85;;;0.60;;
51122;SDS011;37162;41.724;13.346;2023-03-01T04:00:36;2.15;;;1.10;;
51122;SDS011;37162;41.724;13.346;2023-03-01T04:03:04;0.68;;;0.68;;
51122;SDS011;37162;41.724;13.346;2023-03-01T04:05:30;0.50;;;0.50;;
51122;SDS011;37162;41.724;13.346;2023-03-01T04:07:56;1.30;;;0.60;;
51122;SDS011;37162;41.724;13.346;2023-03-01T04:13:13;0.85;;;0.55;;
51122;SDS011;37162;41.724;13.346;2023-03-01T04:15:41;0.50;;;0.50;;
51122;SDS011;37162;41.724;13.346;2023-03-01T04:18:12;1.48;;;0.47;;
51122;SDS011;37162;41.724;13.346;2023-03-01T04:20:38;0.55;;;0.50;;
51122;SDS011;37162;41.724;13.346;2023-03-01T04:23:09;0.70;;;0.70;;
51122;SDS011;37162;41.724;13.346;2023-03-01T04:28:22;0.70;;;0.50;;
51122;SDS011;37162;41.724;13.346;2023-03-01T04:30:49;0.80;;;0.50;;
51122;SDS011;37162;41.724;13.346;2023-03-01T04:33:16;1.27;;;0.60;;
51122;SDS011;37162;41.724;13.346;2023-03-01T04:35:41;0.88;;;0.57;;
51122;SDS011;37162;41.724;13.346;2023-03-01T04:38:07;0.80;;;0.60;;
51122;SDS011;37162;41.724;13.346;2023-03-01T04:40:33;0.55;;;0.52;;
51122;SDS011;37162;41.724;13.346;2023-03-01T04:42:59;1.00;;;0.65;;
51122;SDS011;37162;41.724;13.346;2023-03-01T04:45:25;0.98;;;0.52;;
51122;SDS011;37162;41.724;13.346;2023-03-01T04:47:50;0.43;;;0.43;;
51122;SDS011;37162;41.724;13.346;2023-03-01T04:50:17;1.15;;;0.50;;
51122;SDS011;37162;41.724;13.346;2023-03-01T04:52:45;0.40;;;0.40;;
51122;SDS011;37162;41.724;13.346;2023-03-01T04:55:12;0.93;;;0.55;;
51122;SDS011;37162;41.724;13.346;2023-03-01T04:57:38;0.57;;;0.40;;
51122;SDS011;37162;41.724;13.346;2023-03-01T05:00:04;0.60;;;0.50;;
51122;SDS011;37162;41.724;13.346;2023-03-01T05:02:45;0.80;;;0.68;;
51122;SDS011;37162;41.724;13.346;2023-03-01T05:05:18;0.38;;;0.38;;
51122;SDS011;37162;41.724;13.346;2023-03-01T05:07:44;0.47;;;0.47;;
51122;SDS011;37162;41.724;13.346;2023-03-01T05:10:09;0.40;;;0.40;;
51122;SDS011;37162;41.724;13.346;2023-03-01T05:12:35;0.35;;;0.35;;
51122;SDS011;37162;41.724;13.346;2023-03-01T05:15:02;0.40;;;0.40;;
51122;SDS011;37162;41.724;13.346;2023-03-01T05:17:32;0.40;;;0.40;;
51122;SDS011;37162;41.724;13.346;2023-03-01T05:20:00;0.63;;;0.60;;
51122;SDS011;37162;41.724;13.346;2023-03-01T05:22:26;0.90;;;0.45;;
51122;SDS011;37162;41.724;13.346;2023-03-01T05:24:52;0.68;;;0.45;;
51122;SDS011;37162;41.724;13.346;2023-03-01T05:27:19;0.40;;;0.40;;
51122;SDS011;37162;41.724;13.346;2023-03-01T05:29:47;0.63;;;0.50;;
51122;SDS011;37162;41.724;13.346;2023-03-01T05:32:13;0.55;;;0.50;;
51122;SDS011;37162;41.724;13.346;2023-03-01T05:34:40;0.60;;;0.60;;
51122;SDS011;37162;41.724;13.346;2023-03-01T05:37:06;2.25;;;0.52;;
51122;SDS011;37162;41.724;13.346;2023-03-01T05:39:32;0.50;;;0.50;;
51122;SDS011;37162;41.724;13.346;2023-03-01T05:41:59;0.50;;;0.50;;
51122;SDS011;37162;41.724;13.346;2023-03-01T05:44:26;0.40;;;0.40;;
51122;SDS011;37162;41.724;13.346;2023-03-01T05:46:53;0.50;;;0.50;;
51122;SDS011;37162;41.724;13.346;2023-03-01T05:49:20;1.20;;;1.02;;
51122;SDS011;37162;41.724;13.346;2023-03-01T05:51:49;0.40;;;0.40;;
51122;SDS011;37162;41.724;13.346;2023-03-01T05:54:16;0.50;;;0.50;;
51122;SDS011;37162;41.724;13.346;2023-03-01T05:56:42;0.50;;;0.50;;
51122;SDS011;37162;41.724;13.346;2023-03-01T05:59:07;1.15;;;0.63;;
51122;SDS011;37162;41.724;13.346;2023-03-01T06:01:33;0.40;;;0.40;;
51122;SDS011;37162;41.724;13.346;2023-03-01T06:03:59;0.82;;;0.63;;
51122;SDS011;37162;41.724;13.346;2023-03-01T06:06:25;0.50;;;0.30;;
51122;SDS011;37162;41.724;13.346;2023-03-01T06:08:51;0.40;;;0.40;;
51122;SDS011;37162;41.724;13.346;2023-03-01T06:11:17;0.50;;;0.50;;
51122;SDS011;37162;41.724;13.346;2023-03-01T06:13:43;0.90;;;0.52;;
51122;SDS011;37162;41.724;13.346;2023-03-01T06:16:09;0.40;;;0.40;;
51122;SDS011;37162;41.724;13.346;2023-03-01T06:18:35;0.88;;;0.80;;
51122;SDS011;37162;41.724;13.346;2023-03-01T06:21:01;0.60;;;0.60;;
51122;SDS011;37162;41.724;13.346;2023-03-01T06:23:26;0.60;;;0.60;;
51122;SDS011;37162;41.724;13.346;2023-03-01T06:25:52;0.60;;;0.45;;
51122;SDS011;37162;41.724;13.346;2023-03-01T06:28:17;0.70;;;0.70;;
51122;SDS011;37162;41.724;13.346;2023-03-01T06:30:43;0.47;;;0.47;;
51122;SDS011;37162;41.724;13.346;2023-03-01T06:33:08;0.57;;;0.55;;
51122;SDS011;37162;41.724;13.346;2023-03-01T06:35:33;0.57;;;0.57;;
51122;SDS011;37162;41.724;13.346;2023-03-01T06:38:00;1.10;;;1.00;;
51122;SDS011;37162;41.724;13.346;2023-03-01T06:40:26;0.63;;;0.60;;
51122;SDS011;37162;41.724;13.346;2023-03-01T06:42:52;0.50;;;0.50;;
51122;SDS011;37162;41.724;13.346;2023-03-01T06:45:18;0.70;;;0.70;;
51122;SDS011;37162;41.724;13.346;2023-03-01T06:47:45;0.75;;;0.60;;
51122;SDS011;37162;41.724;13.346;2023-03-01T06:50:11;0.80;;;0.80;;
51122;SDS011;37162;41.724;13.346;2023-03-01T06:52:37;0.65;;;0.65;;
51122;SDS011;37162;41.724;13.346;2023-03-01T06:55:03;0.90;;;0.80;;
51122;SDS011;37162;41.724;13.346;2023-03-01T06:57:29;0.68;;;0.68;;
51122;SDS011;37162;41.724;13.346;2023-03-01T06:59:54;0.82;;;0.82;;
51122;SDS011;37162;41.724;13.346;2023-03-01T07:02:20;1.63;;;1.40;;
51122;SDS011;37162;41.724;13.346;2023-03-01T07:04:45;1.40;;;1.20;;
51122;SDS011;37162;41.724;13.346;2023-03-01T07:07:10;2.13;;;1.30;;
51122;SDS011;37162;41.724;13.346;2023-03-01T07:09:36;2.05;;;1.50;;
51122;SDS011;37162;41.724;13.346;2023-03-01T07:12:02;1.98;;;1.45;;
51122;SDS011;37162;41.724;13.346;2023-03-01T07:14:27;2.63;;;1.40;;
51122;SDS011;37162;41.724;13.346;2023-03-01T07:16:53;2.17;;;1.52;;
51122;SDS011;37162;41.724;13.346;2023-03-01T07:19:19;1.52;;;1.30;;
51122;SDS011;37162;41.724;13.346;2023-03-01T07:21:45;1.58;;;1.20;;
51122;SDS011;37162;41.724;13.346;2023-03-01T07:24:11;1.80;;;1.20;;
51122;SDS011;37162;41.724;13.346;2023-03-01T07:26:37;1.48;;;1.10;;
51122;SDS011;37162;41.724;13.346;2023-03-01T07:29:03;1.48;;;1.23;;
51122;SDS011;37162;41.724;13.346;2023-03-01T07:31:31;1.10;;;1.00;;
51122;SDS011;37162;41.724;13.346;2023-03-01T07:33:56;2.08;;;1.63;;
51122;SDS011;37162;41.724;13.346;2023-03-01T07:36:22;1.35;;;1.20;;
51122;SDS011;37162;41.724;13.346;2023-03-01T07:38:48;1.65;;;1.10;;
51122;SDS011;37162;41.724;13.346;2023-03-01T07:41:14;1.65;;;1.08;;
51122;SDS011;37162;41.724;13.346;2023-03-01T07:43:39;1.63;;;1.30;;
51122;SDS011;37162;41.724;13.346;2023-03-01T07:46:05;1.95;;;1.35;;
51122;SDS011;37162;41.724;13.346;2023-03-01T07:48:31;1.45;;;1.35;;
51122;SDS011;37162;41.724;13.346;2023-03-01T07:51:01;2.47;;;1.17;;
51122;SDS011;37162;41.724;13.346;2023-03-01T07:53:29;1.50;;;1.30;;
51122;SDS011;37162;41.724;13.346;2023-03-01T07:58:27;1.63;;;1.10;;
51122;SDS011;37162;41.724;13.346;2023-03-01T08:00:53;2.30;;;1.50;;
51122;SDS011;37162;41.724;13.346;2023-03-01T08:03:18;1.48;;;1.27;;
51122;SDS011;37162;41.724;13.346;2023-03-01T08:05:43;1.80;;;1.30;;
51122;SDS011;37162;41.724;13.346;2023-03-01T08:08:09;1.40;;;1.30;;
51122;SDS011;37162;41.724;13.346;2023-03-01T08:10:35;1.70;;;1.60;;
51122;SDS011;37162;41.724;13.346;2023-03-01T08:13:01;2.17;;;1.38;;
51122;SDS011;37162;41.724;13.346;2023-03-01T08:15:26;1.38;;;1.27;;
51122;SDS011;37162;41.724;13.346;2023-03-01T08:17:52;2.50;;;1.42;;
51122;SDS011;37162;41.724;13.346;2023-03-01T08:20:17;2.28;;;1.77;;
51122;SDS011;37162;41.724;13.346;2023-03-01T08:22:42;9.45;;;2.75;;
51122;SDS011;37162;41.724;13.346;2023-03-01T08:25:08;24.42;;;2.90;;
51122;SDS011;37162;41.724;13.346;2023-03-01T08:27:34;7.72;;;1.80;;
51122;SDS011;37162;41.724;13.346;2023-03-01T08:29:59;1.73;;;1.50;;
51122;SDS011;37162;41.724;13.346;2023-03-01T08:32:24;2.13;;;1.60;;
51122;SDS011;37162;41.724;13.346;2023-03-01T08:34:50;2.53;;;1.42;;
51122;SDS011;37162;41.724;13.346;2023-03-01T08:37:15;3.42;;;2.40;;
51122;SDS011;37162;41.724;13.346;2023-03-01T08:39:41;2.80;;;1.40;;
51122;SDS011;37162;41.724;13.346;2023-03-01T08:42:06;3.25;;;1.58;;
51122;SDS011;37162;41.724;13.346;2023-03-01T08:44:31;3.95;;;1.45;;
51122;SDS011;37162;41.724;13.346;2023-03-01T08:46:57;3.42;;;1.98;;
51122;SDS011;37162;41.724;13.346;2023-03-01T08:49:23;2.47;;;1.38;;
51122;SDS011;37162;41.724;13.346;2023-03-01T08:51:48;2.80;;;1.65;;
51122;SDS011;37162;41.724;13.346;2023-03-01T08:54:18;2.38;;;1.42;;
51122;SDS011;37162;41.724;13.346;2023-03-01T08:56:44;4.40;;;2.00;;
51122;SDS011;37162;41.724;13.346;2023-03-01T08:59:11;5.90;;;1.58;;
51122;SDS011;37162;41.724;13.346;2023-03-01T09:01:38;3.03;;;2.03;;
51122;SDS011;37162;41.724;13.346;2023-03-01T09:05:19;3.20;;;1.73;;
51122;SDS011;37162;41.724;13.346;2023-03-01T09:07:44;2.58;;;1.40;;
51122;SDS011;37162;41.724;13.346;2023-03-01T09:10:10;17.05;;;1.55;;
51122;SDS011;37162;41.724;13.346;2023-03-01T09:12:36;7.80;;;2.20;;
51122;SDS011;37162;41.724;13.346;2023-03-01T09:15:01;17.52;;;1.95;;
51122;SDS011;37162;41.724;13.346;2023-03-01T09:17:27;9.63;;;2.95;;
51122;SDS011;37162;41.724;13.346;2023-03-01T09:19:52;6.13;;;2.97;;
51122;SDS011;37162;41.724;13.346;2023-03-01T09:22:19;7.60;;;3.60;;
51122;SDS011;37162;41.724;13.346;2023-03-01T09:24:44;13.70;;;2.47;;
51122;SDS011;37162;41.724;13.346;2023-03-01T09:27:09;7.03;;;2.60;;
51122;SDS011;37162;41.724;13.346;2023-03-01T09:29:36;6.15;;;3.35;;
51122;SDS011;37162;41.724;13.346;2023-03-01T09:32:02;12.48;;;3.05;;
51122;SDS011;37162;41.724;13.346;2023-03-01T09:34:27;6.68;;;3.67;;
51122;SDS011;37162;41.724;13.346;2023-03-01T09:36:53;7.30;;;3.25;;
51122;SDS011;37162;41.724;13.346;2023-03-01T09:39:19;6.43;;;3.10;;
51122;SDS011;37162;41.724;13.346;2023-03-01T09:49:26;5.30;;;2.85;;
51122;SDS011;37162;41.724;13.346;2023-03-01T09:54:46;4.35;;;2.65;;
51122;SDS011;37162;41.724;13.346;2023-03-01T09:57:18;3.15;;;2.35;;
51122;SDS011;37162;41.724;13.346;2023-03-01T10:00:00;4.47;;;2.65;;
51122;SDS011;37162;41.724;13.346;2023-03-01T10:07:47;3.00;;;2.60;;
51122;SDS011;37162;41.724;13.346;2023-03-01T10:10:38;2.45;;;1.90;;
51122;SDS011;37162;41.724;13.346;2023-03-01T10:13:14;3.20;;;2.00;;
51122;SDS011;37162;41.724;13.346;2023-03-01T10:15:55;3.15;;;1.90;;
51122;SDS011;37162;41.724;13.346;2023-03-01T10:18:27;5.35;;;2.47;;
51122;SDS011;37162;41.724;13.346;2023-03-01T10:21:13;3.95;;;1.83;;
51122;SDS011;37162;41.724;13.346;2023-03-01T10:23:42;2.20;;;1.90;;
51122;SDS011;37162;41.724;13.346;2023-03-01T10:31:29;2.50;;;1.42;;
51122;SDS011;37162;41.724;13.346;2023-03-01T10:34:02;5.00;;;1.70;;
51122;SDS011;37162;41.724;13.346;2023-03-01T10:36:32;3.42;;;1.63;;
51122;SDS011;37162;41.724;13.346;2023-03-01T10:38:59;4.47;;;1.45;;
51122;SDS011;37162;41.724;13.346;2023-03-01T10:41:25;2.20;;;1.52;;
51122;SDS011;37162;41.724;13.346;2023-03-01T10:43:56;2.35;;;1.45;;
51122;SDS011;37162;41.724;13.346;2023-03-01T10:51:41;2.80;;;2.00;;
51122;SDS011;37162;41.724;13.346;2023-03-01T10:56:55;4.10;;;1.10;;
51122;SDS011;37162;41.724;13.346;2023-03-01T10:59:25;1.73;;;1.40;;
51122;SDS011;37162;41.724;13.346;2023-03-01T11:02:18;2.10;;;1.50;;
51122;SDS011;37162;41.724;13.346;2023-03-01T11:07:24;2.30;;;1.50;;
51122;SDS011;37162;41.724;13.346;2023-03-01T11:09:49;1.90;;;1.35;;
51122;SDS011;37162;41.724;13.346;2023-03-01T11:12:15;2.03;;;1.75;;
51122;SDS011;37162;41.724;13.346;2023-03-01T11:14:48;1.40;;;1.30;;
51122;SDS011;37162;41.724;13.346;2023-03-01T11:17:21;6.97;;;1.70;;
51122;SDS011;37162;41.724;13.346;2023-03-01T11:20:02;1.60;;;1.20;;
51122;SDS011;37162;41.724;13.346;2023-03-01T11:22:45;4.00;;;1.35;;
51122;SDS011;37162;41.724;13.346;2023-03-01T11:25:14;2.65;;;1.40;;
51122;SDS011;37162;41.724;13.346;2023-03-01T11:27:43;2.22;;;1.23;;
51122;SDS011;37162;41.724;13.346;2023-03-01T11:33:12;5.77;;;1.37;;
51122;SDS011;37162;41.724;13.346;2023-03-01T11:35:44;7.55;;;1.67;;
51122;SDS011;37162;41.724;13.346;2023-03-01T11:38:31;6.70;;;1.10;;
51122;SDS011;37162;41.724;13.346;2023-03-01T11:41:23;4.68;;;1.25;;
51122;SDS011;37162;41.724;13.346;2023-03-01T11:43:59;2.15;;;1.23;;
51122;SDS011;37162;41.724;13.346;2023-03-01T11:54:45;4.60;;;1.27;;
51122;SDS011;37162;41.724;13.346;2023-03-01T12:05:50;2.00;;;1.02;;
51122;SDS011;37162;41.724;13.346;2023-03-01T12:08:25;1.15;;;0.80;;
51122;SDS011;37162;41.724;13.346;2023-03-01T12:49:45;1.48;;;1.10;;
51122;SDS011;37162;41.724;13.346;2023-03-01T12:55:18;2.05;;;1.13;;
51122;SDS011;37162;41.724;13.346;2023-03-01T12:57:50;1.95;;;1.35;;
51122;SDS011;37162;41.724;13.346;2023-03-01T13:09:25;2.40;;;1.13;;
51122;SDS011;37162;41.724;13.346;2023-03-01T13:11:55;1.63;;;1.35;;
51122;SDS011;37162;41.724;13.346;2023-03-01T13:16:46;2.83;;;1.13;;
51122;SDS011;37162;41.724;13.346;2023-03-01T13:21:45;1.10;;;1.00;;
51122;SDS011;37162;41.724;13.346;2023-03-01T13:24:28;1.85;;;1.30;;
51122;SDS011;37162;41.724;13.346;2023-03-01T13:35:06;2.47;;;1.55;;
51122;SDS011;37162;41.724;13.346;2023-03-01T13:37:51;1.40;;;1.08;;
51122;SDS011;37162;41.724;13.346;2023-03-01T13:42:46;1.15;;;1.00;;
51122;SDS011;37162;41.724;13.346;2023-03-01T13:48:03;1.25;;;0.98;;
51122;SDS011;37162;41.724;13.346;2023-03-01T13:50:38;1.55;;;1.00;;
51122;SDS011;37162;41.724;13.346;2023-03-01T13:53:11;1.40;;;0.98;;
51122;SDS011;37162;41.724;13.346;2023-03-01T13:55:44;1.35;;;1.20;;
51122;SDS011;37162;41.724;13.346;2023-03-01T13:58:16;1.80;;;1.05;;
51122;SDS011;37162;41.724;13.346;2023-03-01T14:00:54;1.65;;;1.00;;
51122;SDS011;37162;41.724;13.346;2023-03-01T14:03:24;1.20;;;1.05;;
51122;SDS011;37162;41.724;13.346;2023-03-01T14:06:00;1.00;;;0.88;;
51122;SDS011;37162;41.724;13.346;2023-03-01T14:08:38;1.35;;;1.10;;
51122;SDS011;37162;41.724;13.346;2023-03-01T14:24:28;2.28;;;1.10;;
51122;SDS011;37162;41.724;13.346;2023-03-01T14:26:57;1.83;;;1.25;;
51122;SDS011;37162;41.724;13.346;2023-03-01T14:29:27;1.35;;;1.05;;
51122;SDS011;37162;41.724;13.346;2023-03-01T14:34:46;1.20;;;1.10;;
51122;SDS011;37162;41.724;13.346;2023-03-01T14:39:41;1.30;;;1.20;;
51122;SDS011;37162;41.724;13.346;2023-03-01T14:42:06;2.75;;;1.17;;
51122;SDS011;37162;41.724;13.346;2023-03-01T14:44:35;1.58;;;1.20;;
51122;SDS011;37162;41.724;13.346;2023-03-01T14:47:02;1.00;;;0.80;;
51122;SDS011;37162;41.724;13.346;2023-03-01T14:49:30;2.25;;;1.15;;
51122;SDS011;37162;41.724;13.346;2023-03-01T14:52:01;1.60;;;1.20;;
51122;SDS011;37162;41.724;13.346;2023-03-01T14:57:03;1.50;;;1.25;;
51122;SDS011;37162;41.724;13.346;2023-03-01T14:59:29;1.90;;;1.20;;
51122;SDS011;37162;41.724;13.346;2023-03-01T15:01:55;1.67;;;1.50;;
51122;SDS011;37162;41.724;13.346;2023-03-01T15:04:24;1.83;;;1.02;;
51122;SDS011;37162;41.724;13.346;2023-03-01T15:06:52;1.67;;;1.17;;
51122;SDS011;37162;41.724;13.346;2023-03-01T15:09:18;1.92;;;1.08;;
51122;SDS011;37162;41.724;13.346;2023-03-01T15:11:44;1.55;;;1.05;;
51122;SDS011;37162;41.724;13.346;2023-03-01T15:17:20;1.90;;;1.20;;
51122;SDS011;37162;41.724;13.346;2023-03-01T15:19:59;1.35;;;1.25;;
51122;SDS011;37162;41.724;13.346;2023-03-01T15:22:28;1.80;;;1.35;;
51122;SDS011;37162;41.724;13.346;2023-03-01T15:24:53;1.40;;;1.17;;
51122;SDS011;37162;41.724;13.346;2023-03-01T15:27:20;1.20;;;1.00;;
51122;SDS011;37162;41.724;13.346;2023-03-01T15:29:55;1.80;;;1.20;;
51122;SDS011;37162;41.724;13.346;2023-03-01T15:34:58;1.13;;;1.00;;
51122;SDS011;37162;41.724;13.346;2023-03-01T15:37:39;1.65;;;1.20;;
51122;SDS011;37162;41.724;13.346;2023-03-01T15:42:56;1.45;;;1.20;;
51122;SDS011;37162;41.724;13.346;2023-03-01T15:45:32;1.60;;;1.30;;
51122;SDS011;37162;41.724;13.346;2023-03-01T15:50:31;1.80;;;1.17;;
51122;SDS011;37162;41.724;13.346;2023-03-01T15:52:59;3.35;;;1.15;;
51122;SDS011;37162;41.724;13.346;2023-03-01T15:55:26;1.35;;;1.20;;
51122;SDS011;37162;41.724;13.346;2023-03-01T15:58:03;1.60;;;1.00;;
51122;SDS011;37162;41.724;13.346;2023-03-01T16:00:31;1.40;;;1.17;;
51122;SDS011;37162;41.724;13.346;2023-03-01T16:02:58;1.40;;;1.30;;
51122;SDS011;37162;41.724;13.346;2023-03-01T16:05:24;2.50;;;1.70;;
51122;SDS011;37162;41.724;13.346;2023-03-01T16:07:55;1.75;;;1.27;;
51122;SDS011;37162;41.724;13.346;2023-03-01T16:10:21;1.50;;;1.40;;
51122;SDS011;37162;41.724;13.346;2023-03-01T16:12:47;1.70;;;1.30;;
51122;SDS011;37162;41.724;13.346;2023-03-01T16:15:21;1.77;;;1.33;;
51122;SDS011;37162;41.724;13.346;2023-03-01T16:17:49;3.47;;;1.33;;
51122;SDS011;37162;41.724;13.346;2023-03-01T16:20:15;1.58;;;1.33;;
51122;SDS011;37162;41.724;13.346;2023-03-01T16:22:44;1.83;;;1.50;;
51122;SDS011;37162;41.724;13.346;2023-03-01T16:25:13;2.58;;;1.77;;
51122;SDS011;37162;41.724;13.346;2023-03-01T16:27:45;2.30;;;1.60;;
51122;SDS011;37162;41.724;13.346;2023-03-01T16:30:13;2.42;;;1.73;;
51122;SDS011;37162;41.724;13.346;2023-03-01T16:32:39;3.33;;;1.60;;
51122;SDS011;37162;41.724;13.346;2023-03-01T16:35:07;2.72;;;1.60;;
51122;SDS011;37162;41.724;13.346;2023-03-01T16:37:35;2.47;;;1.48;;
51122;SDS011;37162;41.724;13.346;2023-03-01T16:40:01;2.17;;;1.48;;
51122;SDS011;37162;41.724;13.346;2023-03-01T16:42:32;2.60;;;1.48;;
51122;SDS011;37162;41.724;13.346;2023-03-01T16:44:58;1.67;;;1.33;;
51122;SDS011;37162;41.724;13.346;2023-03-01T16:47:24;1.92;;;1.42;;
51122;SDS011;37162;41.724;13.346;2023-03-01T16:49:53;2.60;;;1.70;;
51122;SDS011;37162;41.724;13.346;2023-03-01T16:52:19;2.45;;;1.63;;
51122;SDS011;37162;41.724;13.346;2023-03-01T16:54:45;2.30;;;1.55;;
51122;SDS011;37162;41.724;13.346;2023-03-01T16:57:10;1.30;;;1.20;;
51122;SDS011;37162;41.724;13.346;2023-03-01T16:59:36;2.42;;;1.75;;
51122;SDS011;37162;41.724;13.346;2023-03-01T17:02:02;2.80;;;1.90;;
51122;SDS011;37162;41.724;13.346;2023-03-01T17:04:28;2.88;;;1.63;;
51122;SDS011;37162;41.724;13.346;2023-03-01T17:06:54;2.25;;;1.80;;
51122;SDS011;37162;41.724;13.346;2023-03-01T17:09:20;2.92;;;1.75;;
51122;SDS011;37162;41.724;13.346;2023-03-01T17:11:47;2.55;;;2.00;;
51122;SDS011;37162;41.724;13.346;2023-03-01T17:14:15;2.05;;;1.85;;
51122;SDS011;37162;41.724;13.346;2023-03-01T17:16:42;3.70;;;2.20;;
51122;SDS011;37162;41.724;13.346;2023-03-01T17:19:08;3.05;;;1.80;;
51122;SDS011;37162;41.724;13.346;2023-03-01T17:21:34;2.85;;;2.13;;
51122;SDS011;37162;41.724;13.346;2023-03-01T17:23:59;2.50;;;1.50;;